createdAt,value
2017-10-19T00:02:16.314Z,9.87
2017-10-19T00:04:42.582Z,7.70
2017-10-19T00:07:09.600Z,10.43
2017-10-19T00:09:35.829Z,8.80
2017-10-19T00:12:02.108Z,11.90
2017-10-19T00:14:28.292Z,6.70
2017-10-19T00:16:54.812Z,6.83
2017-10-19T00:19:21.042Z,9.17
2017-10-19T00:21:47.226Z,6.07
2017-10-19T00:24:13.428Z,10.50
2017-10-19T00:26:40.463Z,10.30
2017-10-19T00:29:06.715Z,7.20
2017-10-19T00:31:32.884Z,6.50
2017-10-19T00:33:59.112Z,10.33
2017-10-19T00:36:25.376Z,9.03
2017-10-19T00:38:52.388Z,6.10
2017-10-19T00:41:18.698Z,6.83
2017-10-19T00:43:44.904Z,7.67
2017-10-19T00:46:11.079Z,6.73
2017-10-19T00:48:37.308Z,12.10
2017-10-19T00:51:03.458Z,11.37
2017-10-19T00:53:30.648Z,6.23
2017-10-19T00:55:56.876Z,5.17
2017-10-19T00:58:23.115Z,7.57
2017-10-19T01:00:49.775Z,4.77
2017-10-19T01:03:15.953Z,5.90
2017-10-19T01:05:42.123Z,5.83
2017-10-19T01:08:08.754Z,6.03
2017-10-19T01:10:35.078Z,6.00
2017-10-19T01:13:01.306Z,6.17
2017-10-19T01:15:27.518Z,6.10
2017-10-19T01:17:53.795Z,7.17
2017-10-19T01:20:20.761Z,5.97
2017-10-19T01:22:46.902Z,6.70
2017-10-19T01:25:13.106Z,5.07
2017-10-19T01:27:40.177Z,9.50
2017-10-19T01:30:06.386Z,6.00
2017-10-19T01:32:32.744Z,5.57
2017-10-19T01:34:58.903Z,5.13
2017-10-19T01:37:25.502Z,5.20
2017-10-19T01:39:52.489Z,4.70
2017-10-19T01:42:19.399Z,13.20
2017-10-19T01:44:45.721Z,7.27
2017-10-19T01:47:11.850Z,6.17
2017-10-19T01:49:50.504Z,5.40
2017-10-19T01:52:16.776Z,6.43
2017-10-19T01:54:42.951Z,8.90
2017-10-19T01:57:09.346Z,9.17
2017-10-19T01:59:35.490Z,5.30
2017-10-19T02:02:01.630Z,5.70
2017-10-19T02:04:27.825Z,5.10
2017-10-19T02:06:54.037Z,5.00
2017-10-19T02:09:20.234Z,5.83
2017-10-19T02:11:47.144Z,4.70
2017-10-19T02:14:13.289Z,10.23
2017-10-19T02:16:39.656Z,6.40
2017-10-19T02:19:05.883Z,5.67
2017-10-19T02:21:32.257Z,5.23
2017-10-19T02:23:58.501Z,7.57
2017-10-19T02:26:24.923Z,16.80
2017-10-19T02:28:51.105Z,11.03
2017-10-19T02:31:17.532Z,13.97
2017-10-19T02:33:43.754Z,6.67
2017-10-19T02:36:10.000Z,12.70
2017-10-19T02:38:36.238Z,18.90
2017-10-19T02:41:02.356Z,10.63
2017-10-19T02:43:28.536Z,11.60
2017-10-19T02:45:55.442Z,15.27
2017-10-19T02:48:21.628Z,12.90
2017-10-19T02:50:47.847Z,9.00
2017-10-19T02:53:14.188Z,14.00
2017-10-19T02:55:40.396Z,8.87
2017-10-19T02:58:07.305Z,9.17
2017-10-19T03:00:33.518Z,7.70
2017-10-19T03:02:59.810Z,7.90
2017-10-19T03:05:26.065Z,7.43
2017-10-19T03:07:52.302Z,8.00
2017-10-19T03:10:18.393Z,7.33
2017-10-19T03:12:44.492Z,5.83
2017-10-19T03:15:10.648Z,8.23
2017-10-19T03:17:36.813Z,7.87
2017-10-19T03:20:02.955Z,7.83
2017-10-19T03:22:29.867Z,10.20
2017-10-19T03:24:56.011Z,11.93
2017-10-19T03:27:22.208Z,9.30
2017-10-19T03:29:48.617Z,6.70
2017-10-19T03:32:14.833Z,6.07
2017-10-19T03:34:41.039Z,6.63
2017-10-19T03:37:07.902Z,6.53
2017-10-19T03:39:34.077Z,6.23
2017-10-19T03:42:00.341Z,10.30
2017-10-19T03:44:26.508Z,6.80
2017-10-19T03:46:52.673Z,6.77
2017-10-19T03:49:19.651Z,9.07
2017-10-19T03:51:45.799Z,9.47
2017-10-19T03:54:12.005Z,7.37
2017-10-19T03:56:38.186Z,6.07
2017-10-19T03:59:05.117Z,7.10
2017-10-19T04:01:31.373Z,13.97
2017-10-19T04:03:58.465Z,7.17
2017-10-19T04:06:24.967Z,6.33
2017-10-19T04:08:51.140Z,10.27
2017-10-19T04:11:17.365Z,13.20
2017-10-19T04:13:43.512Z,8.93
2017-10-19T04:16:09.718Z,12.00
2017-10-19T04:18:35.949Z,11.77
2017-10-19T04:21:02.155Z,16.80
2017-10-19T04:23:28.365Z,8.70
2017-10-19T04:25:54.621Z,6.50
2017-10-19T04:28:20.847Z,10.17
2017-10-19T04:30:47.066Z,8.00
2017-10-19T04:33:13.222Z,11.50
2017-10-19T04:35:39.493Z,10.43
2017-10-19T04:38:05.613Z,6.57
2017-10-19T04:40:31.753Z,7.20
2017-10-19T04:42:57.964Z,7.97
2017-10-19T04:45:24.058Z,9.27
2017-10-19T04:47:50.244Z,7.00
2017-10-19T04:50:16.506Z,12.53
2017-10-19T04:52:42.697Z,12.60
2017-10-19T04:55:08.892Z,12.93
2017-10-19T04:57:35.090Z,6.80
2017-10-19T05:00:02.208Z,7.43
2017-10-19T05:02:28.465Z,16.93
2017-10-19T05:04:55.376Z,9.70
2017-10-19T05:07:21.683Z,6.57
2017-10-19T05:09:47.983Z,7.03
2017-10-19T05:12:14.906Z,10.60
2017-10-19T05:14:41.143Z,6.00
2017-10-19T05:17:08.070Z,6.67
2017-10-19T05:19:34.242Z,10.53
2017-10-19T05:22:00.443Z,7.00
2017-10-19T05:24:27.402Z,6.43
2017-10-19T05:26:53.524Z,5.60
2017-10-19T05:29:19.708Z,9.20
2017-10-19T05:31:47.590Z,5.47
2017-10-19T05:34:14.476Z,8.13
2017-10-19T05:36:40.620Z,6.43
2017-10-19T05:39:06.824Z,8.27
2017-10-19T05:41:33.012Z,21.27
2017-10-19T05:43:59.900Z,23.60
2017-10-19T05:46:26.216Z,25.93
2017-10-19T05:48:52.332Z,11.67
2017-10-19T05:51:18.508Z,14.27
2017-10-19T05:53:44.710Z,9.57
2017-10-19T05:56:10.858Z,8.93
2017-10-19T05:58:37.237Z,6.83
2017-10-19T06:01:03.399Z,7.63
2017-10-19T06:03:29.592Z,7.43
2017-10-19T06:05:55.810Z,7.30
2017-10-19T06:08:21.954Z,7.30
2017-10-19T06:10:48.155Z,6.83
2017-10-19T06:13:15.165Z,9.23
2017-10-19T06:15:41.378Z,8.80
2017-10-19T06:18:07.503Z,7.47
2017-10-19T06:20:33.732Z,14.50
2017-10-19T06:22:59.828Z,10.60
2017-10-19T06:25:26.024Z,9.03
2017-10-19T06:27:52.944Z,15.60
2017-10-19T06:30:19.166Z,11.70
2017-10-19T06:32:45.365Z,8.77
2017-10-19T06:35:11.562Z,6.87
2017-10-19T06:37:37.681Z,7.90
2017-10-19T06:40:03.909Z,7.17
2017-10-19T06:42:30.115Z,11.73
2017-10-19T06:44:57.100Z,9.00
2017-10-19T06:47:24.163Z,11.87
2017-10-19T06:49:50.309Z,6.30
2017-10-19T06:52:16.597Z,6.90
2017-10-19T06:54:43.219Z,7.23
2017-10-19T06:57:09.551Z,8.77
2017-10-19T06:59:35.800Z,6.97
2017-10-19T07:02:02.009Z,16.27
2017-10-19T07:04:28.352Z,6.70
2017-10-19T07:06:54.527Z,6.63
2017-10-19T07:09:20.929Z,7.37
2017-10-19T07:11:47.107Z,7.27
2017-10-19T07:14:14.102Z,8.20
2017-10-19T07:16:40.347Z,13.57
2017-10-19T07:19:06.660Z,9.30
2017-10-19T07:21:32.990Z,10.67
2017-10-19T07:23:59.152Z,9.13
2017-10-19T07:26:26.382Z,10.37
2017-10-19T07:28:53.300Z,8.10
2017-10-19T07:31:19.521Z,9.43
2017-10-19T07:33:45.843Z,8.17
2017-10-19T07:36:11.971Z,8.50
2017-10-19T07:38:38.186Z,8.70
2017-10-19T07:41:04.488Z,8.70
2017-10-19T07:43:30.609Z,10.80
2017-10-19T07:45:57.542Z,11.40
2017-10-19T07:48:24.526Z,7.90
2017-10-19T07:50:50.904Z,7.80
2017-10-19T07:53:17.077Z,7.40
2017-10-19T07:55:43.387Z,7.50
2017-10-19T07:58:09.522Z,6.47
2017-10-19T08:00:35.830Z,6.57
2017-10-19T08:03:02.768Z,7.23
2017-10-19T08:05:29.788Z,6.13
2017-10-19T08:07:56.112Z,6.03
2017-10-19T08:10:22.318Z,6.77
2017-10-19T08:12:48.646Z,5.27
2017-10-19T08:15:15.071Z,5.53
2017-10-19T08:17:41.204Z,5.30
2017-10-19T08:20:07.577Z,5.40
2017-10-19T08:22:34.523Z,6.23
2017-10-19T08:25:01.372Z,5.50
2017-10-19T08:27:28.376Z,5.47
2017-10-19T08:29:54.580Z,5.13
2017-10-19T08:32:20.677Z,5.33
2017-10-19T08:34:48.727Z,10.13
2017-10-19T08:37:14.956Z,4.97
2017-10-19T08:39:41.041Z,6.60
2017-10-19T08:42:07.155Z,5.27
2017-10-19T08:44:33.350Z,5.37
2017-10-19T08:47:00.265Z,5.97
2017-10-19T08:49:26.549Z,5.47
2017-10-19T08:51:52.792Z,4.47
2017-10-19T08:54:18.943Z,3.97
2017-10-19T08:56:45.925Z,4.53
2017-10-19T08:59:12.144Z,6.30
2017-10-19T09:01:40.030Z,3.73
2017-10-19T09:04:06.220Z,3.53
2017-10-19T09:06:33.294Z,3.77
2017-10-19T09:09:00.490Z,3.93
2017-10-19T09:11:26.706Z,4.13
2017-10-19T09:13:52.960Z,4.60
2017-10-19T09:16:19.150Z,8.53
2017-10-19T09:18:45.418Z,3.40
2017-10-19T09:21:11.652Z,3.43
2017-10-19T09:23:37.881Z,3.87
2017-10-19T09:26:04.878Z,2.90
2017-10-19T09:28:31.154Z,4.40
2017-10-19T09:30:58.209Z,3.33
2017-10-19T09:33:25.096Z,3.60
2017-10-19T09:35:51.403Z,3.60
2017-10-19T09:38:17.675Z,3.13
2017-10-19T09:40:43.943Z,10.90
2017-10-19T09:43:10.075Z,3.60
2017-10-19T09:45:38.490Z,10.43
2017-10-19T09:48:04.841Z,5.73
2017-10-19T09:50:31.178Z,3.00
2017-10-19T09:52:57.471Z,3.83
2017-10-19T09:55:23.800Z,3.50
2017-10-19T09:57:49.975Z,5.60
2017-10-19T10:00:16.856Z,3.33
2017-10-19T10:02:43.055Z,2.90
2017-10-19T10:05:09.239Z,6.43
2017-10-19T10:07:35.496Z,3.20
2017-10-19T10:10:02.436Z,2.90
2017-10-19T10:12:29.600Z,2.80
2017-10-19T10:14:56.359Z,3.07
2017-10-19T10:17:22.550Z,2.90
2017-10-19T10:19:48.664Z,3.00
2017-10-19T10:22:15.223Z,3.30
2017-10-19T10:24:42.159Z,3.40
2017-10-19T10:27:09.040Z,3.07
2017-10-19T10:29:35.372Z,3.57
2017-10-19T10:32:01.541Z,3.40
2017-10-19T10:34:27.721Z,5.27
2017-10-19T10:36:53.918Z,11.73
2017-10-19T10:39:20.887Z,14.23
2017-10-19T10:41:47.200Z,7.63
2017-10-19T10:44:13.615Z,9.07
2017-10-19T10:46:40.515Z,13.20
2017-10-19T10:49:06.630Z,14.30
2017-10-19T10:51:32.796Z,11.60
2017-10-19T10:53:59.877Z,12.03
2017-10-19T10:56:26.069Z,10.73
2017-10-19T10:58:52.347Z,11.30
2017-10-19T11:01:18.439Z,10.10
2017-10-19T11:03:45.378Z,13.97
2017-10-19T11:06:12.222Z,15.87
2017-10-19T11:08:39.140Z,12.00
2017-10-19T11:11:06.032Z,14.37
2017-10-19T11:13:32.137Z,63.37
2017-10-19T11:15:59.062Z,10.97
2017-10-19T11:18:25.173Z,16.23
2017-10-19T11:20:51.403Z,16.50
2017-10-19T11:23:17.573Z,9.80
2017-10-19T11:25:43.756Z,21.20
2017-10-19T11:28:10.003Z,15.53
2017-10-19T11:30:36.894Z,17.50
2017-10-19T11:33:03.123Z,16.60
2017-10-19T11:35:29.240Z,15.57
2017-10-19T11:37:55.375Z,17.03
2017-10-19T11:40:21.769Z,14.20
2017-10-19T11:42:48.157Z,10.30
2017-10-19T11:45:14.362Z,12.40
2017-10-19T11:47:40.484Z,14.67
2017-10-19T11:50:06.684Z,10.83
2017-10-19T11:52:32.843Z,20.67
2017-10-19T11:54:59.017Z,15.83
2017-10-19T11:57:25.947Z,19.23
2017-10-19T11:59:52.070Z,18.60
2017-10-19T12:02:18.246Z,10.13
2017-10-19T12:04:44.480Z,13.87
2017-10-19T12:07:10.555Z,13.37
2017-10-19T12:09:36.713Z,12.27
2017-10-19T12:12:02.822Z,14.10
2017-10-19T12:14:29.171Z,19.03
2017-10-19T12:16:55.481Z,19.47
2017-10-19T12:19:22.367Z,12.57
2017-10-19T12:21:48.524Z,19.47
2017-10-19T12:24:14.659Z,16.83
2017-10-19T12:26:40.790Z,12.90
2017-10-19T12:29:07.663Z,15.73
2017-10-19T12:31:33.885Z,10.13
2017-10-19T12:34:00.056Z,19.67
2017-10-19T12:36:26.324Z,23.73
2017-10-19T12:38:53.198Z,11.37
2017-10-19T12:41:19.494Z,16.80
2017-10-19T12:43:46.366Z,18.07
2017-10-19T12:46:12.530Z,12.93
2017-10-19T12:48:38.706Z,15.60
2017-10-19T12:51:05.004Z,18.67
2017-10-19T12:53:31.182Z,14.17
2017-10-19T12:55:57.337Z,14.53
2017-10-19T12:58:23.736Z,13.33
2017-10-19T13:00:49.980Z,12.00
2017-10-19T13:03:16.142Z,15.23
2017-10-19T13:05:42.282Z,14.27
2017-10-19T13:08:08.514Z,13.27
2017-10-19T13:10:35.435Z,20.53
2017-10-19T13:13:01.625Z,20.73
2017-10-19T13:15:27.862Z,19.97
2017-10-19T13:17:54.028Z,15.80
2017-10-19T13:20:21.114Z,13.67
2017-10-19T13:22:48.356Z,17.50
2017-10-19T13:25:14.765Z,15.60
2017-10-19T13:27:41.108Z,13.70
2017-10-19T13:30:07.287Z,12.80
2017-10-19T13:32:33.567Z,15.77
2017-10-19T13:34:59.721Z,17.57
2017-10-19T13:37:25.786Z,19.90
2017-10-19T13:39:51.972Z,19.27
2017-10-19T13:42:18.065Z,18.37
2017-10-19T13:44:44.244Z,11.00
2017-10-19T13:47:10.357Z,13.30
2017-10-19T13:49:36.501Z,13.00
2017-10-19T13:52:02.685Z,12.80
2017-10-19T13:54:28.835Z,16.97
2017-10-19T13:56:54.945Z,9.27
2017-10-19T13:59:21.248Z,13.37
2017-10-19T14:01:47.580Z,13.13
2017-10-19T14:04:13.823Z,12.97
2017-10-19T14:06:40.069Z,8.03
2017-10-19T14:09:06.355Z,9.93
2017-10-19T14:11:32.492Z,8.87
2017-10-19T14:13:58.651Z,8.30
2017-10-19T14:16:25.196Z,7.50
2017-10-19T14:18:51.372Z,9.83
2017-10-19T14:21:17.637Z,15.23
2017-10-19T14:23:43.800Z,10.23
2017-10-19T14:26:10.723Z,15.33
2017-10-19T14:28:36.932Z,7.87
2017-10-19T14:31:03.234Z,8.47
2017-10-19T14:33:29.444Z,14.37
2017-10-19T14:35:56.302Z,9.20
2017-10-19T14:38:22.551Z,13.27
2017-10-19T14:40:48.779Z,9.00
2017-10-19T14:43:14.999Z,10.23
2017-10-19T14:45:41.163Z,10.30
2017-10-19T14:48:07.386Z,11.90
2017-10-19T14:50:33.630Z,10.90
2017-10-19T14:52:59.770Z,11.13
2017-10-19T14:55:26.674Z,12.47
2017-10-19T14:57:53.788Z,15.60
2017-10-19T15:00:20.164Z,10.33
2017-10-19T15:02:46.477Z,10.10
2017-10-19T15:05:12.656Z,11.57
2017-10-19T15:07:38.812Z,9.67
2017-10-19T15:10:04.900Z,11.47
2017-10-19T15:12:31.859Z,10.23
2017-10-19T15:14:57.989Z,15.13
2017-10-19T15:17:24.251Z,13.83
2017-10-19T15:19:50.368Z,9.43
2017-10-19T15:22:16.509Z,11.60
2017-10-19T15:24:42.747Z,9.13
2017-10-19T15:27:08.842Z,9.43
2017-10-19T15:29:35.055Z,12.37
2017-10-19T15:32:01.430Z,14.23
2017-10-19T15:34:27.593Z,11.67
2017-10-19T15:36:53.774Z,12.70
2017-10-19T15:39:20.030Z,6.63
2017-10-19T15:41:46.908Z,13.47
2017-10-19T15:44:13.513Z,10.80
2017-10-19T15:46:40.351Z,31.90
2017-10-19T15:49:07.276Z,26.93
2017-10-19T15:51:33.524Z,13.73
2017-10-19T15:54:00.443Z,13.40
2017-10-19T15:56:26.574Z,13.90
2017-10-19T15:58:52.852Z,9.87
2017-10-19T16:01:19.033Z,9.40
2017-10-19T16:03:45.986Z,6.67
2017-10-19T16:06:12.843Z,10.10
2017-10-19T16:08:38.931Z,11.20
2017-10-19T16:11:05.109Z,9.87
2017-10-19T16:13:31.227Z,7.10
2017-10-19T16:15:57.348Z,7.93
2017-10-19T16:18:23.619Z,11.10
2017-10-19T16:20:49.926Z,6.03
2017-10-19T16:23:16.201Z,7.27
2017-10-19T16:25:42.453Z,7.10
2017-10-19T16:28:08.733Z,15.17
2017-10-19T16:30:34.943Z,13.20
2017-10-19T16:33:01.082Z,13.97
2017-10-19T16:35:27.271Z,15.80
2017-10-19T16:37:53.565Z,9.60
2017-10-19T16:40:20.432Z,11.90
2017-10-19T16:42:47.410Z,7.23
2017-10-19T16:45:13.704Z,11.20
2017-10-19T16:47:40.586Z,8.97
2017-10-19T16:50:06.778Z,12.53
2017-10-19T16:52:33.661Z,8.30
2017-10-19T16:54:59.850Z,14.83
2017-10-19T16:57:26.131Z,13.63
2017-10-19T16:59:52.282Z,8.47
2017-10-19T17:02:18.436Z,11.10
2017-10-19T17:04:44.634Z,11.03
2017-10-19T17:07:11.476Z,12.37
2017-10-19T17:09:37.618Z,13.50
2017-10-19T17:12:04.548Z,11.77
2017-10-19T17:14:31.464Z,13.27
2017-10-19T17:16:57.626Z,11.17
2017-10-19T17:19:24.554Z,14.57
2017-10-19T17:21:51.536Z,12.43
2017-10-19T17:24:17.890Z,13.00
2017-10-19T17:26:43.998Z,12.00
2017-10-19T17:29:10.511Z,15.47
2017-10-19T17:31:36.709Z,17.73
2017-10-19T17:34:03.605Z,37.87
2017-10-19T17:36:30.130Z,38.03
2017-10-19T17:38:56.338Z,52.03
2017-10-19T17:41:22.708Z,43.53
2017-10-19T17:43:48.924Z,59.33
2017-10-19T17:46:15.126Z,42.67
2017-10-19T17:48:42.070Z,50.47
2017-10-19T17:51:08.233Z,47.80
2017-10-19T17:53:34.470Z,64.17
2017-10-19T17:56:00.623Z,79.93
2017-10-19T17:58:27.577Z,57.57
2017-10-19T18:00:54.519Z,63.67
2017-10-19T18:03:21.573Z,55.67
2017-10-19T18:05:48.565Z,52.73
2017-10-19T18:08:15.480Z,45.13
2017-10-19T18:10:41.648Z,45.17
2017-10-19T18:13:07.887Z,44.80
2017-10-19T18:15:34.093Z,43.33
2017-10-19T18:18:01.049Z,77.30
2017-10-19T18:20:27.202Z,56.03
2017-10-19T18:22:54.143Z,65.87
2017-10-19T18:25:21.138Z,55.20
2017-10-19T18:27:47.863Z,55.53
2017-10-19T18:30:14.229Z,53.37
2017-10-19T18:32:41.399Z,64.40
2017-10-19T18:35:07.561Z,58.53
2017-10-19T18:37:33.709Z,54.43
2017-10-19T18:39:59.883Z,50.77
2017-10-19T18:42:26.825Z,41.70
2017-10-19T18:44:52.977Z,38.00
2017-10-19T18:47:20.215Z,52.17
2017-10-19T18:49:47.111Z,46.67
2017-10-19T18:52:13.328Z,56.10
2017-10-19T18:54:39.627Z,57.70
2017-10-19T18:57:05.797Z,43.43
2017-10-19T18:59:32.048Z,35.77
2017-10-19T19:01:58.254Z,44.60
2017-10-19T19:04:24.404Z,47.70
2017-10-19T19:06:50.826Z,36.13
2017-10-19T19:09:17.078Z,23.43
2017-10-19T19:11:43.260Z,21.50
2017-10-19T19:14:09.397Z,23.47
2017-10-19T19:16:35.710Z,19.63
2017-10-19T19:19:01.912Z,17.23
2017-10-19T19:21:28.065Z,23.90
2017-10-19T19:23:54.748Z,19.00
2017-10-19T19:26:21.738Z,16.73
2017-10-19T19:28:49.121Z,15.37
2017-10-19T19:31:15.435Z,16.23
2017-10-19T19:33:41.636Z,19.83
2017-10-19T19:36:07.936Z,15.70
2017-10-19T19:38:34.887Z,15.00
2017-10-19T19:41:02.003Z,12.47
2017-10-19T19:43:28.207Z,51.67
2017-10-19T19:45:54.387Z,114.73
2017-10-19T19:48:20.617Z,144.53
2017-10-19T19:50:46.788Z,142.70
2017-10-19T19:53:13.025Z,138.73
2017-10-19T19:55:39.352Z,93.30
2017-10-19T19:58:05.601Z,67.93
2017-10-19T20:00:31.822Z,51.30
2017-10-19T20:02:57.988Z,31.90
2017-10-19T20:05:24.279Z,33.23
2017-10-19T20:07:51.225Z,36.03
2017-10-19T20:10:17.375Z,31.70
2017-10-19T20:12:43.511Z,27.93
2017-10-19T20:15:09.841Z,23.60
2017-10-19T20:17:35.943Z,20.13
2017-10-19T20:20:02.798Z,18.50
2017-10-19T20:22:28.935Z,17.33
2017-10-19T20:24:55.123Z,20.40
2017-10-19T20:27:21.301Z,16.20
2017-10-19T20:29:47.451Z,15.57
2017-10-19T20:32:13.571Z,13.20
2017-10-19T20:34:39.781Z,13.80
2017-10-19T20:37:05.991Z,11.80
2017-10-19T20:39:32.205Z,21.67
2017-10-19T20:41:58.416Z,13.00
2017-10-19T20:44:25.383Z,11.17
2017-10-19T20:46:51.559Z,11.77
2017-10-19T20:49:17.729Z,9.73
2017-10-19T20:51:43.859Z,9.20
2017-10-19T20:54:10.060Z,16.50
2017-10-19T20:56:37.448Z,14.90
2017-10-19T20:59:03.652Z,16.27
2017-10-19T21:01:29.908Z,16.93
2017-10-19T21:03:56.012Z,19.53
2017-10-19T21:06:22.306Z,17.10
2017-10-19T21:08:48.596Z,17.33
2017-10-19T21:11:15.792Z,17.43
2017-10-19T21:13:42.726Z,16.60
2017-10-19T21:16:08.903Z,15.87
2017-10-19T21:18:35.080Z,11.90
2017-10-19T21:21:01.761Z,10.70
2017-10-19T21:23:27.928Z,18.70
2017-10-19T21:25:54.034Z,12.67
2017-10-19T21:28:20.302Z,10.00
2017-10-19T21:30:46.396Z,13.47
2017-10-19T21:33:12.556Z,9.37
2017-10-19T21:35:38.814Z,9.67
2017-10-19T21:38:05.123Z,8.83
2017-10-19T21:40:32.152Z,8.30
2017-10-19T21:42:59.239Z,10.00
2017-10-19T21:45:25.328Z,9.17
2017-10-19T21:47:51.537Z,8.00
2017-10-19T21:50:17.677Z,7.47
2017-10-19T21:52:44.594Z,9.77
2017-10-19T21:55:11.771Z,6.50
2017-10-19T21:57:38.736Z,7.83
2017-10-19T22:00:05.680Z,7.17
2017-10-19T22:02:32.357Z,7.50
2017-10-19T22:04:58.759Z,7.97
2017-10-19T22:07:24.943Z,9.57
2017-10-19T22:09:51.369Z,7.83
2017-10-19T22:12:18.304Z,10.30
2017-10-19T22:14:44.521Z,14.83
2017-10-19T22:17:11.194Z,9.23
2017-10-19T22:19:37.411Z,11.20
2017-10-19T22:22:04.663Z,9.43
2017-10-19T22:24:30.870Z,11.43
2017-10-19T22:26:56.994Z,8.90
2017-10-19T22:29:23.153Z,9.57
2017-10-19T22:31:50.113Z,12.10
2017-10-19T22:34:16.378Z,17.73
2017-10-19T22:36:42.478Z,16.70
2017-10-19T22:39:08.676Z,10.60
2017-10-19T22:41:35.627Z,18.60
2017-10-19T22:44:02.533Z,11.00
2017-10-19T22:46:28.694Z,10.53
2017-10-19T22:48:55.666Z,12.17
2017-10-19T22:51:21.856Z,11.37
2017-10-19T22:53:48.012Z,17.03
2017-10-19T22:56:14.195Z,8.90
2017-10-19T22:58:40.333Z,11.50
2017-10-19T23:01:07.322Z,11.13
2017-10-19T23:03:33.490Z,14.80
2017-10-19T23:05:59.715Z,8.77
2017-10-19T23:08:25.859Z,9.03
2017-10-19T23:10:52.721Z,15.33
2017-10-19T23:13:18.889Z,9.70
2017-10-19T23:15:45.025Z,8.00
2017-10-19T23:18:11.247Z,7.63
2017-10-19T23:20:37.465Z,8.50
2017-10-19T23:23:03.709Z,8.03
2017-10-19T23:25:29.866Z,7.03
2017-10-19T23:27:56.758Z,6.73
2017-10-19T23:30:22.986Z,8.00
2017-10-19T23:32:49.136Z,12.10
2017-10-19T23:35:15.316Z,6.50
2017-10-19T23:37:41.458Z,6.80
2017-10-19T23:40:07.565Z,7.50
2017-10-19T23:42:33.759Z,5.93
2017-10-19T23:45:00.700Z,9.10
2017-10-19T23:47:27.618Z,7.07
2017-10-19T23:49:53.979Z,6.80
2017-10-19T23:52:20.912Z,7.93
2017-10-19T23:54:47.842Z,6.20
2017-10-19T23:57:13.992Z,6.97
2017-10-19T23:59:40.821Z,9.77
